Time;durP1;ratioP1;P1;durP2;ratioP2;P2;SDS_P1;SDS_P2;PMS_P1;PMS_P2;Temp;Humidity;BMP_temperature;BMP_pressure;BME280_temperature;BME280_humidity;BME280_pressure;Samples;Min_cycle;Max_cycle;Signal;HPM_P1;HPM_P2
2023/04/09 00:01:55;;;;;;;65.85;38.10;;;8.10;91.10;;;;;;5011330;28;20801;-72
2023/04/09 00:04:22;;;;;;;72.03;39.10;;;8.10;93.00;;;;;;5011578;28;20393;-73
2023/04/09 00:06:54;;;;;;;70.25;39.35;;;8.00;94.30;;;;;;4993002;28;20400;-75
2023/04/09 00:09:19;;;;;;;70.38;39.35;;;8.10;96.00;;;;;;5010781;28;20384;-73
2023/04/09 00:11:45;;;;;;;65.32;37.78;;;8.20;92.70;;;;;;5010309;28;20416;-72
2023/04/09 00:14:10;;;;;;;66.70;39.57;;;8.00;93.30;;;;;;5010936;28;20446;-73
2023/04/09 00:16:36;;;;;;;71.80;39.50;;;7.90;95.00;;;;;;5011171;28;20454;-72
2023/04/09 00:19:01;;;;;;;72.05;40.20;;;7.80;95.80;;;;;;5010937;28;20408;-72
2023/04/09 00:21:27;;;;;;;70.97;39.60;;;7.70;96.80;;;;;;5010528;28;20407;-72
2023/04/09 00:23:53;;;;;;;66.82;39.35;;;7.60;98.40;;;;;;5010937;28;20741;-75
2023/04/09 00:26:18;;;;;;;70.13;38.67;;;7.50;99.70;;;;;;5011424;28;20762;-74
2023/04/09 00:28:44;;;;;;;67.07;39.00;;;7.40;99.90;;;;;;5012342;28;20738;-71
2023/04/09 00:31:10;;;;;;;74.35;40.15;;;7.40;99.90;;;;;;5011103;28;20941;-73
2023/04/09 00:33:35;;;;;;;70.20;39.80;;;7.50;99.90;;;;;;5011421;28;20405;-74
2023/04/09 00:36:01;;;;;;;70.87;38.67;;;7.50;99.90;;;;;;5011497;28;20881;-73
2023/04/09 00:38:26;;;;;;;71.40;38.67;;;7.40;99.90;;;;;;5011115;28;20469;-72
2023/04/09 00:40:52;;;;;;;70.07;39.20;;;7.30;99.90;;;;;;5012217;28;20389;-73
2023/04/09 00:43:17;;;;;;;64.60;38.63;;;7.60;99.90;;;;;;5016774;28;20381;-73
2023/04/09 00:45:44;;;;;;;70.25;40.65;;;7.50;99.10;;;;;;5027279;28;20385;-72
2023/04/09 00:48:11;;;;;;;69.97;39.35;;;7.30;99.90;;;;;;5032904;28;20476;-71
2023/04/09 00:50:36;;;;;;;74.15;41.67;;;7.20;99.90;;;;;;5023148;28;20551;-72
2023/04/09 00:53:03;;;;;;;73.73;40.50;;;7.20;99.90;;;;;;5013675;28;20480;-72
2023/04/09 00:55:29;;;;;;;68.03;40.37;;;7.20;99.90;;;;;;4996456;28;20527;-71
2023/04/09 00:57:55;;;;;;;67.78;39.72;;;7.30;99.90;;;;;;5014093;28;20396;-73
2023/04/09 01:00:20;;;;;;;71.57;41.30;;;7.20;99.90;;;;;;5014277;28;20385;-70
2023/04/09 01:02:47;;;;;;;71.93;41.03;;;7.00;99.90;;;;;;5013514;28;20389;-73
2023/04/09 01:05:14;;;;;;;72.80;41.23;;;7.00;99.90;;;;;;4996404;28;20787;-72
2023/04/09 01:08:17;;;;;;;75.47;41.88;;;7.00;99.90;;;;;;5017091;28;20420;-73
2023/04/09 01:11:09;;;;;;;71.90;42.05;;;6.90;99.90;;;;;;5017347;28;20419;-72
2023/04/09 01:13:50;;;;;;;71.83;41.83;;;6.70;99.90;;;;;;5015715;28;20416;-75
2023/04/09 01:16:17;;;;;;;76.15;40.97;;;6.70;99.90;;;;;;4997582;28;20396;-72
2023/04/09 01:18:58;;;;;;;73.50;40.45;;;6.80;99.90;;;;;;5014900;28;20392;-71
2023/04/09 01:21:31;;;;;;;68.68;39.60;;;7.00;99.90;;;;;;5013277;28;20423;-73
2023/04/09 01:24:09;;;;;;;71.82;39.72;;;7.10;99.90;;;;;;5013925;28;20389;-73
2023/04/09 01:26:56;;;;;;;71.50;38.75;;;7.00;99.90;;;;;;4996061;28;20396;-74
2023/04/09 01:29:22;;;;;;;65.07;38.40;;;7.10;99.90;;;;;;5013340;28;20416;-71
2023/04/09 01:31:49;;;;;;;70.80;40.45;;;7.30;99.60;;;;;;5012295;28;20905;-73
2023/04/09 01:34:15;;;;;;;69.47;40.00;;;7.20;99.00;;;;;;5012800;28;20777;-71
2023/04/09 01:36:44;;;;;;;71.72;41.70;;;7.30;98.40;;;;;;5012870;28;20396;-73
2023/04/09 01:39:10;;;;;;;71.20;40.03;;;7.10;99.00;;;;;;5013007;28;20778;-71
2023/04/09 01:41:36;;;;;;;73.07;40.42;;;7.30;99.90;;;;;;5012231;28;20551;-72
2023/04/09 01:44:04;;;;;;;67.25;39.05;;;7.50;96.10;;;;;;5012957;28;20392;-72
2023/04/09 01:46:30;;;;;;;69.25;39.22;;;7.80;94.10;;;;;;5013262;28;20507;-72
2023/04/09 01:48:57;;;;;;;78.68;40.80;;;7.70;92.40;;;;;;5013024;28;20407;-72
2023/04/09 01:51:22;;;;;;;68.75;39.55;;;7.60;93.90;;;;;;5011986;28;20479;-73
2023/04/09 01:53:48;;;;;;;65.28;38.75;;;7.70;95.60;;;;;;4994989;28;20484;-72
2023/04/09 01:56:14;;;;;;;72.22;40.05;;;7.80;91.40;;;;;;5013044;28;20794;-71
2023/04/09 01:58:40;;;;;;;72.87;41.50;;;7.70;92.20;;;;;;5012279;28;20454;-73
2023/04/09 02:01:26;;;;;;;69.77;40.23;;;7.50;95.30;;;;;;5014071;28;20467;-73
2023/04/09 02:04:02;;;;;;;71.03;40.38;;;7.50;97.60;;;;;;5012724;28;20434;-72
2023/04/09 02:06:54;;;;;;;75.80;39.40;;;7.40;99.90;;;;;;4995060;28;20444;-73
2023/04/09 02:09:21;;;;;;;66.65;39.92;;;7.40;99.90;;;;;;4989554;28;20397;-74
2023/04/09 02:11:48;;;;;;;69.45;40.00;;;7.40;99.90;;;;;;5012308;28;20439;-72
2023/04/09 02:14:15;;;;;;;74.35;43.53;;;7.40;99.90;;;;;;5012917;28;20420;-73
2023/04/09 02:16:41;;;;;;;68.38;40.45;;;7.30;99.90;;;;;;4994908;28;20471;-73
2023/04/09 02:19:07;;;;;;;71.07;41.90;;;7.30;99.90;;;;;;5012515;28;20649;-73
2023/04/09 02:21:32;;;;;;;69.72;40.25;;;7.20;99.90;;;;;;5020360;28;20409;-74
2023/04/09 02:23:58;;;;;;;73.63;42.63;;;7.10;99.90;;;;;;5015442;28;20938;-73
2023/04/09 02:26:23;;;;;;;68.97;40.40;;;7.00;99.90;;;;;;5011912;28;20405;-73
2023/04/09 02:28:49;;;;;;;69.35;41.40;;;7.10;99.90;;;;;;5012202;28;20400;-71
2023/04/09 02:31:15;;;;;;;75.85;41.20;;;7.00;99.90;;;;;;5011690;28;20397;-71
2023/04/09 02:33:41;;;;;;;69.90;40.23;;;7.00;99.90;;;;;;5012252;28;20961;-71
2023/04/09 02:36:11;;;;;;;70.10;41.97;;;6.80;99.90;;;;;;5011807;28;20401;-74
2023/04/09 02:38:39;;;;;;;72.75;40.40;;;6.60;99.90;;;;;;5013275;28;20729;-73
2023/04/09 02:41:04;;;;;;;82.63;41.38;;;6.60;99.90;;;;;;5011265;28;20392;-73
2023/04/09 02:43:30;;;;;;;74.87;40.20;;;6.80;99.90;;;;;;5011649;28;20699;-73
2023/04/09 02:45:55;;;;;;;67.83;38.53;;;7.10;99.90;;;;;;5011837;28;20385;-72
2023/04/09 02:48:21;;;;;;;67.13;39.87;;;7.30;97.20;;;;;;5012508;28;20758;-72
2023/04/09 02:50:46;;;;;;;67.80;39.03;;;7.20;94.80;;;;;;5013308;28;20393;-74
2023/04/09 02:53:12;;;;;;;70.27;39.30;;;7.20;95.40;;;;;;4998770;28;20814;-73
2023/04/09 02:55:37;;;;;;;68.10;39.10;;;7.00;95.70;;;;;;5016803;28;20400;-71
2023/04/09 02:58:03;;;;;;;66.43;40.43;;;6.70;98.90;;;;;;5017956;28;20428;-74
2023/04/09 03:00:28;;;;;;;68.82;40.13;;;6.70;99.60;;;;;;5017056;28;20389;-74
2023/04/09 03:02:54;;;;;;;70.47;40.08;;;6.50;99.90;;;;;;5011862;28;20451;-74
2023/04/09 03:05:20;;;;;;;73.90;40.60;;;6.40;99.90;;;;;;5012579;28;20409;-75
2023/04/09 03:07:46;;;;;;;76.00;42.80;;;6.30;99.90;;;;;;5012357;28;20404;-72
2023/04/09 03:10:11;;;;;;;73.40;41.00;;;6.20;99.90;;;;;;5012723;28;20554;-72
2023/04/09 03:12:37;;;;;;;80.93;42.83;;;6.10;99.90;;;;;;5011700;28;20503;-73
2023/04/09 03:15:03;;;;;;;78.03;42.07;;;6.00;99.90;;;;;;5012404;28;20396;-75
2023/04/09 03:17:30;;;;;;;72.80;41.05;;;6.10;99.90;;;;;;5013302;28;20415;-75
2023/04/09 03:19:56;;;;;;;79.30;42.60;;;6.00;99.90;;;;;;5018022;28;20428;-72
2023/04/09 03:22:22;;;;;;;75.25;42.28;;;6.10;99.90;;;;;;5017077;28;20397;-71
2023/04/09 03:24:47;;;;;;;78.70;43.00;;;5.90;99.90;;;;;;5012044;28;20487;-72
2023/04/09 03:27:13;;;;;;;77.53;42.53;;;5.70;99.90;;;;;;5012059;28;20463;-73
2023/04/09 03:29:39;;;;;;;69.65;40.25;;;5.60;99.90;;;;;;5011432;28;20465;-72
2023/04/09 03:32:04;;;;;;;73.05;41.22;;;5.50;99.90;;;;;;5010496;28;20400;-71
2023/04/09 03:34:30;;;;;;;77.50;42.30;;;5.40;99.90;;;;;;5010859;28;20384;-72
2023/04/09 03:36:56;;;;;;;75.60;42.00;;;5.30;99.90;;;;;;5010827;28;20385;-72
2023/04/09 03:39:21;;;;;;;75.70;41.25;;;5.20;99.90;;;;;;5010841;28;20522;-73
2023/04/09 03:41:47;;;;;;;74.25;41.78;;;5.20;99.90;;;;;;5010600;28;20381;-70
2023/04/09 03:44:13;;;;;;;74.32;40.90;;;5.10;99.90;;;;;;5011355;28;20400;-71
2023/04/09 03:46:38;;;;;;;75.47;41.20;;;5.30;99.90;;;;;;5012227;28;20813;-71
2023/04/09 03:49:04;;;;;;;69.87;38.43;;;5.50;99.90;;;;;;5012088;28;20527;-73
2023/04/09 03:51:30;;;;;;;59.47;35.45;;;5.90;99.90;;;;;;5016799;28;20384;-72
2023/04/09 03:53:56;;;;;;;56.20;33.20;;;5.80;99.90;;;;;;5014025;28;20389;-73
2023/04/09 03:56:22;;;;;;;59.70;34.43;;;5.70;99.90;;;;;;4995350;28;20384;-72
2023/04/09 03:58:48;;;;;;;55.60;31.40;;;5.70;99.90;;;;;;5016361;28;20380;-71
2023/04/09 04:01:14;;;;;;;52.35;31.95;;;5.70;99.90;;;;;;5008667;28;20393;-72
2023/04/09 04:03:39;;;;;;;56.83;33.97;;;5.60;99.90;;;;;;5019564;28;21015;-72
2023/04/09 04:06:05;;;;;;;58.73;32.70;;;5.50;99.90;;;;;;5017625;28;20392;-73
2023/04/09 04:08:30;;;;;;;55.40;32.37;;;5.60;99.90;;;;;;5020345;28;20439;-73
2023/04/09 04:11:02;;;;;;;51.63;31.13;;;5.40;99.90;;;;;;5017030;28;20397;-74
2023/04/09 04:13:28;;;;;;;58.70;33.10;;;5.40;99.90;;;;;;5013173;28;20413;-72
2023/04/09 04:15:53;;;;;;;57.45;32.55;;;5.40;99.90;;;;;;5013122;28;20389;-72
2023/04/09 04:18:19;;;;;;;56.42;31.83;;;5.60;99.90;;;;;;5014314;28;20438;-72
2023/04/09 04:20:44;;;;;;;54.92;30.27;;;5.40;99.90;;;;;;4994298;28;20793;-72
2023/04/09 04:23:10;;;;;;;46.75;28.20;;;5.30;99.90;;;;;;5013827;28;20392;-72
2023/04/09 04:25:35;;;;;;;51.80;29.92;;;5.20;99.90;;;;;;5015283;28;20393;-73
2023/04/09 04:28:01;;;;;;;44.92;26.98;;;5.40;99.90;;;;;;5014889;28;20881;-72
2023/04/09 04:30:26;;;;;;;47.08;27.85;;;5.40;99.90;;;;;;5014471;28;20475;-73
2023/04/09 04:32:52;;;;;;;50.00;28.42;;;5.40;99.90;;;;;;5014039;28;20401;-74
2023/04/09 04:35:17;;;;;;;51.40;28.77;;;5.50;99.90;;;;;;5014959;28;20384;-72
2023/04/09 04:37:43;;;;;;;47.47;29.27;;;5.60;99.90;;;;;;5014452;28;20391;-72
2023/04/09 04:40:09;;;;;;;53.28;29.50;;;5.60;99.30;;;;;;5014559;28;20382;-72
2023/04/09 04:42:34;;;;;;;50.03;28.50;;;5.80;96.50;;;;;;5013729;28;20480;-74
2023/04/09 04:45:00;;;;;;;48.43;27.33;;;5.90;93.10;;;;;;5014789;28;20376;-72
2023/04/09 04:47:25;;;;;;;48.33;27.00;;;5.90;91.30;;;;;;5014342;28;20460;-74
2023/04/09 04:49:51;;;;;;;48.20;28.10;;;5.80;91.20;;;;;;5014411;28;20867;-73
2023/04/09 04:52:17;;;;;;;49.03;29.47;;;5.70;93.00;;;;;;5013803;28;20769;-73
2023/04/09 04:54:42;;;;;;;48.33;29.37;;;5.70;94.20;;;;;;5015728;28;20830;-73
2023/04/09 04:57:08;;;;;;;51.27;30.17;;;5.70;93.10;;;;;;5015543;28;20400;-75
2023/04/09 04:59:37;;;;;;;52.40;28.67;;;5.60;94.60;;;;;;5015172;28;20927;-72
2023/04/09 05:02:03;;;;;;;48.33;29.20;;;5.70;94.50;;;;;;5013559;28;20408;-73
2023/04/09 05:04:28;;;;;;;52.33;30.90;;;5.60;95.60;;;;;;5013707;28;20384;-72
2023/04/09 05:06:54;;;;;;;50.30;29.43;;;5.50;97.30;;;;;;5014503;28;20451;-72
2023/04/09 05:09:20;;;;;;;53.75;30.30;;;5.40;97.90;;;;;;5014525;28;20412;-73
2023/04/09 05:11:45;;;;;;;53.42;31.02;;;5.40;99.00;;;;;;5014320;28;20404;-73
2023/04/09 05:14:12;;;;;;;56.17;31.25;;;5.40;99.40;;;;;;5015420;28;20393;-73
2023/04/09 05:16:37;;;;;;;49.10;29.05;;;5.60;98.20;;;;;;5015585;28;20385;-73
2023/04/09 05:19:02;;;;;;;53.30;30.45;;;5.70;94.30;;;;;;5015849;28;20450;-73
2023/04/09 05:21:28;;;;;;;49.15;29.83;;;5.90;91.30;;;;;;5016101;28;20480;-74
2023/04/09 05:23:54;;;;;;;54.87;30.70;;;5.80;90.70;;;;;;5017260;28;20888;-74
2023/04/09 05:26:20;;;;;;;50.75;30.30;;;5.70;91.90;;;;;;5016199;28;20428;-72
2023/04/09 05:28:48;;;;;;;51.85;29.45;;;5.80;92.10;;;;;;5015335;28;21466;-73
2023/04/09 05:31:14;;;;;;;51.30;30.33;;;6.00;89.20;;;;;;5014607;28;20388;-72
2023/04/09 05:33:40;;;;;;;49.27;29.30;;;6.00;86.90;;;;;;5015291;28;20451;-72
2023/04/09 05:36:06;;;;;;;56.30;30.88;;;5.90;86.60;;;;;;5015059;28;20797;-73
2023/04/09 05:38:32;;;;;;;55.83;31.10;;;5.70;90.30;;;;;;5014650;28;20484;-72
2023/04/09 05:40:57;;;;;;;50.90;30.17;;;5.70;94.30;;;;;;4996736;28;20890;-75
2023/04/09 05:43:23;;;;;;;51.33;29.10;;;5.80;94.30;;;;;;5014530;28;20395;-73
2023/04/09 05:45:48;;;;;;;56.33;30.60;;;5.60;94.00;;;;;;5015855;28;20392;-74
2023/04/09 05:48:15;;;;;;;52.28;29.63;;;5.80;94.10;;;;;;5016690;28;20932;-72
2023/04/09 05:50:41;;;;;;;52.22;29.67;;;5.90;92.80;;;;;;5022382;28;20384;-75
2023/04/09 05:53:06;;;;;;;46.03;28.70;;;6.00;91.00;;;;;;5023244;28;20420;-74
2023/04/09 05:55:32;;;;;;;49.33;29.07;;;5.90;90.20;;;;;;5021544;28;20381;-71
2023/04/09 05:57:58;;;;;;;49.67;29.27;;;5.80;92.20;;;;;;5014891;28;20381;-73
2023/04/09 06:00:23;;;;;;;49.37;30.33;;;5.80;93.30;;;;;;5013722;28;20873;-73
2023/04/09 06:02:49;;;;;;;53.00;30.00;;;5.80;94.70;;;;;;5013206;28;20385;-74
2023/04/09 06:05:15;;;;;;;50.20;29.35;;;5.70;94.40;;;;;;5013420;28;20385;-73
2023/04/09 06:07:41;;;;;;;45.83;27.80;;;5.80;94.20;;;;;;5013499;28;20392;-72
2023/04/09 06:10:07;;;;;;;46.23;27.70;;;5.90;94.20;;;;;;5013977;28;20397;-73
2023/04/09 06:12:36;;;;;;;45.83;27.73;;;6.10;93.10;;;;;;5012278;28;20440;-73
2023/04/09 06:15:02;;;;;;;48.53;28.45;;;6.20;88.30;;;;;;5012949;28;20461;-73
2023/04/09 06:17:28;;;;;;;48.58;27.00;;;6.50;85.70;;;;;;5013113;28;20381;-73
2023/04/09 06:19:54;;;;;;;40.30;26.30;;;6.80;79.20;;;;;;4996406;28;20754;-74
2023/04/09 06:22:19;;;;;;;42.60;25.98;;;6.80;77.90;;;;;;5012957;28;20396;-71
2023/04/09 06:24:45;;;;;;;44.90;26.98;;;7.00;76.60;;;;;;5013384;28;20393;-73
2023/04/09 06:27:11;;;;;;;42.25;26.10;;;7.00;75.80;;;;;;5012944;28;20404;-72
2023/04/09 06:29:36;;;;;;;38.08;24.60;;;7.10;75.40;;;;;;5013054;28;20428;-72
2023/04/09 06:32:02;;;;;;;40.47;24.95;;;7.40;73.50;;;;;;5012489;28;20817;-72
2023/04/09 06:34:28;;;;;;;40.83;25.17;;;7.40;72.50;;;;;;5012350;28;20473;-73
2023/04/09 06:36:53;;;;;;;41.73;23.40;;;7.50;72.10;;;;;;4994924;28;20894;-73
2023/04/09 06:39:19;;;;;;;35.07;21.20;;;7.80;65.80;;;;;;5012157;28;20393;-74
2023/04/09 06:41:45;;;;;;;35.42;22.00;;;7.80;66.50;;;;;;5011556;28;20392;-71
2023/04/09 06:44:11;;;;;;;32.65;20.33;;;8.10;63.90;;;;;;5011733;28;20488;-73
2023/04/09 06:46:36;;;;;;;34.83;21.23;;;8.10;62.60;;;;;;5012041;28;20475;-72
2023/04/09 06:49:02;;;;;;;35.17;20.52;;;8.20;62.40;;;;;;5012334;28;20447;-74
2023/04/09 06:51:27;;;;;;;31.92;19.52;;;8.30;60.80;;;;;;5011900;28;20389;-73
2023/04/09 06:53:53;;;;;;;29.42;18.85;;;8.40;58.30;;;;;;5011909;28;20385;-72
2023/04/09 06:56:19;;;;;;;32.00;19.17;;;8.50;57.70;;;;;;5011830;28;20383;-73
2023/04/09 06:58:44;;;;;;;31.98;19.42;;;8.60;56.40;;;;;;5011893;28;20424;-72
2023/04/09 07:01:11;;;;;;;28.40;18.45;;;8.70;54.90;;;;;;5011090;28;20494;-71
2023/04/09 07:03:37;;;;;;;27.27;17.65;;;8.90;54.20;;;;;;5011742;28;20403;-74
2023/04/09 07:06:03;;;;;;;32.23;18.90;;;9.10;49.90;;;;;;5011641;28;20393;-71
2023/04/09 07:08:28;;;;;;;27.23;17.30;;;9.20;50.20;;;;;;5011573;28;20388;-72
2023/04/09 07:10:54;;;;;;;28.70;17.20;;;9.30;46.10;;;;;;5011045;28;20424;-71
2023/04/09 07:13:20;;;;;;;28.23;17.87;;;9.40;45.70;;;;;;5011372;28;20419;-72
2023/04/09 07:15:45;;;;;;;27.33;17.30;;;9.50;44.00;;;;;;5011906;28;20415;-73
2023/04/09 07:18:11;;;;;;;26.35;17.20;;;9.70;43.90;;;;;;5012092;28;20385;-72
2023/04/09 07:20:36;;;;;;;33.92;18.05;;;9.80;42.80;;;;;;5011800;28;20462;-72
2023/04/09 07:23:02;;;;;;;28.30;16.40;;;9.90;41.50;;;;;;5011058;28;20414;-73
2023/04/09 07:25:27;;;;;;;29.23;17.07;;;10.00;41.00;;;;;;5011733;28;20864;-73
2023/04/09 07:27:53;;;;;;;28.90;17.20;;;10.10;40.70;;;;;;5011540;28;20411;-72
2023/04/09 07:30:19;;;;;;;27.23;16.80;;;10.30;38.90;;;;;;5011437;28;20380;-72
2023/04/09 07:32:45;;;;;;;26.30;16.40;;;10.30;37.40;;;;;;5010814;28;20938;-72
2023/04/09 07:35:10;;;;;;;25.60;16.45;;;10.40;36.20;;;;;;5011319;28;20397;-73
2023/04/09 07:37:36;;;;;;;25.60;16.00;;;10.50;35.80;;;;;;5011201;28;20882;-73
2023/04/09 07:40:05;;;;;;;26.13;15.50;;;10.60;35.50;;;;;;5011924;28;20404;-74
2023/04/09 07:42:31;;;;;;;24.67;16.00;;;10.60;34.10;;;;;;5010731;28;20755;-70
2023/04/09 07:44:57;;;;;;;26.60;16.10;;;10.80;35.60;;;;;;5011267;28;20392;-71
2023/04/09 07:47:22;;;;;;;26.13;16.83;;;11.00;33.30;;;;;;4993561;28;20393;-72
2023/04/09 07:49:48;;;;;;;32.23;18.37;;;11.20;32.90;;;;;;5010998;28;20484;-71
2023/04/09 07:52:14;;;;;;;31.27;19.93;;;11.40;33.10;;;;;;5010328;28;20408;-71
2023/04/09 07:54:39;;;;;;;26.40;16.17;;;11.40;32.30;;;;;;4994133;28;20530;-72
2023/04/09 07:57:05;;;;;;;21.70;14.00;;;11.40;31.50;;;;;;5013418;28;20392;-72
2023/04/09 07:59:31;;;;;;;23.73;14.50;;;11.30;29.50;;;;;;5015115;28;20380;-71
2023/04/09 08:01:57;;;;;;;23.90;15.15;;;11.40;28.30;;;;;;5014686;28;20388;-71
2023/04/09 08:04:23;;;;;;;23.08;14.73;;;11.40;30.20;;;;;;5015216;28;20973;-72
2023/04/09 08:06:49;;;;;;;21.37;12.83;;;11.40;29.20;;;;;;5015177;28;20475;-73
2023/04/09 08:09:17;;;;;;;24.02;15.27;;;11.40;27.20;;;;;;5015075;28;20395;-72
2023/04/09 08:11:44;;;;;;;22.23;14.75;;;11.50;29.00;;;;;;5014580;28;20866;-72
2023/04/09 08:14:11;;;;;;;22.42;14.55;;;11.60;28.50;;;;;;5015338;28;20439;-72
2023/04/09 08:16:42;;;;;;;22.65;13.77;;;11.60;28.40;;;;;;5015652;28;20751;-72
2023/04/09 08:19:08;;;;;;;22.50;14.40;;;11.70;27.50;;;;;;4999266;28;20822;-71
2023/04/09 08:21:41;;;;;;;23.27;14.68;;;11.70;26.80;;;;;;5016487;28;20384;-71
2023/04/09 08:24:10;;;;;;;19.65;12.48;;;11.70;27.90;;;;;;5018087;28;20377;-73
2023/04/09 08:26:39;;;;;;;22.20;13.00;;;11.80;26.00;;;;;;5026261;28;20988;-72
2023/04/09 08:29:05;;;;;;;19.40;12.40;;;11.80;25.70;;;;;;5027637;28;20496;-71
2023/04/09 08:31:31;;;;;;;24.00;15.00;;;11.90;24.20;;;;;;5015421;28;20384;-73
2023/04/09 08:33:57;;;;;;;18.93;13.33;;;12.00;25.70;;;;;;5015382;28;20406;-73
2023/04/09 08:36:22;;;;;;;18.33;11.87;;;12.10;25.50;;;;;;5015085;28;20410;-72
2023/04/09 08:38:48;;;;;;;17.52;11.18;;;12.20;23.80;;;;;;5015655;28;20932;-72
2023/04/09 08:41:21;;;;;;;16.10;11.30;;;12.30;23.40;;;;;;5017663;28;20492;-72
2023/04/09 08:43:47;;;;;;;17.40;11.60;;;12.30;22.00;;;;;;5016889;28;20384;-71
2023/04/09 08:46:15;;;;;;;17.02;11.40;;;12.30;23.40;;;;;;4997897;28;20397;-72
2023/04/09 08:48:44;;;;;;;22.00;13.27;;;12.40;22.60;;;;;;5016660;28;20472;-75
2023/04/09 08:51:15;;;;;;;18.15;12.05;;;12.40;23.00;;;;;;5014675;28;20467;-74
2023/04/09 08:54:01;;;;;;;17.55;11.40;;;12.50;22.70;;;;;;5015331;28;20437;-72
2023/04/09 08:56:27;;;;;;;16.20;11.13;;;12.50;22.10;;;;;;5014954;28;20870;-72
2023/04/09 08:58:53;;;;;;;15.88;10.65;;;12.60;21.10;;;;;;5014815;28;20385;-72
2023/04/09 09:01:27;;;;;;;16.02;11.13;;;12.60;19.80;;;;;;5014278;28;20722;-72
2023/04/09 09:03:53;;;;;;;16.95;11.50;;;12.70;21.10;;;;;;5014225;28;20392;-71
2023/04/09 09:06:23;;;;;;;16.02;10.10;;;12.90;21.10;;;;;;5015026;28;20400;-73
2023/04/09 09:09:05;;;;;;;17.27;11.35;;;12.80;19.60;;;;;;5014478;28;21017;-74
2023/04/09 09:11:35;;;;;;;15.35;10.32;;;13.00;20.60;;;;;;4996176;28;20475;-71
2023/04/09 09:14:03;;;;;;;14.82;10.20;;;13.00;20.20;;;;;;5016564;28;20400;-73
2023/04/09 09:16:31;;;;;;;23.65;11.75;;;13.10;19.50;;;;;;5018015;28;20519;-71
2023/04/09 09:18:57;;;;;;;16.55;11.05;;;13.30;19.90;;;;;;5020677;28;20754;-73
2023/04/09 09:21:25;;;;;;;15.53;9.73;;;13.30;19.80;;;;;;5019271;28;20394;-71
2023/04/09 09:23:50;;;;;;;15.10;10.65;;;13.40;17.90;;;;;;5019953;28;20474;-73
2023/04/09 09:26:28;;;;;;;19.50;11.48;;;13.40;17.80;;;;;;5018006;28;20400;-73
2023/04/09 09:28:54;;;;;;;18.27;11.23;;;13.60;19.10;;;;;;5015128;28;20393;-73
2023/04/09 09:31:21;;;;;;;13.80;9.60;;;13.70;19.00;;;;;;5013772;28;20393;-72
2023/04/09 09:33:47;;;;;;;12.98;8.73;;;13.60;16.80;;;;;;4996259;28;20928;-72
2023/04/09 09:36:15;;;;;;;15.13;10.13;;;13.60;16.70;;;;;;5013940;28;20380;-74
2023/04/09 09:38:53;;;;;;;14.65;10.57;;;13.70;17.50;;;;;;5013806;28;20813;-73
2023/04/09 09:41:19;;;;;;;15.20;10.25;;;13.70;17.50;;;;;;5013268;28;20420;-73
2023/04/09 09:43:45;;;;;;;12.80;8.70;;;13.80;16.90;;;;;;5014067;28;20381;-74
2023/04/09 09:46:11;;;;;;;16.38;11.07;;;13.80;16.90;;;;;;5013580;28;20785;-74
2023/04/09 09:48:36;;;;;;;11.10;8.50;;;14.00;18.10;;;;;;5013702;28;20447;-74
2023/04/09 09:51:08;;;;;;;12.43;8.15;;;14.10;16.30;;;;;;5012923;28;20442;-71
2023/04/09 09:53:35;;;;;;;12.43;8.00;;;14.10;15.20;;;;;;4995711;28;20405;-74
2023/04/09 09:56:03;;;;;;;11.60;8.07;;;14.00;15.20;;;;;;5013084;28;20388;-73
2023/04/09 09:58:39;;;;;;;12.57;8.57;;;14.00;15.80;;;;;;5013414;28;20431;-72
2023/04/09 10:01:11;;;;;;;11.15;8.30;;;14.00;15.00;;;;;;5013043;28;20373;-72
2023/04/09 10:03:38;;;;;;;10.07;7.50;;;14.00;15.20;;;;;;5013222;28;20392;-74
2023/04/09 10:06:07;;;;;;;11.80;8.00;;;14.10;14.10;;;;;;5013228;28;20464;-74
2023/04/09 10:08:34;;;;;;;10.40;6.93;;;14.10;14.70;;;;;;5013060;28;20396;-74
2023/04/09 10:11:01;;;;;;;11.13;7.20;;;14.30;14.50;;;;;;5013180;28;20847;-74
2023/04/09 10:13:34;;;;;;;10.30;7.78;;;14.30;13.60;;;;;;5013172;28;20408;-70
2023/04/09 10:16:01;;;;;;;12.68;8.07;;;14.40;15.10;;;;;;5013119;28;20384;-74
2023/04/09 10:18:28;;;;;;;11.20;7.77;;;14.40;14.00;;;;;;5012527;28;20392;-72
2023/04/09 10:21:19;;;;;;;9.02;7.40;;;14.60;14.10;;;;;;5011776;28;20388;-74
2023/04/09 10:23:48;;;;;;;11.95;7.90;;;14.50;13.10;;;;;;5012706;28;20877;-71
2023/04/09 10:26:13;;;;;;;11.70;8.43;;;14.50;13.50;;;;;;5012946;28;20489;-74
2023/04/09 10:28:40;;;;;;;10.90;8.20;;;14.60;13.50;;;;;;5012820;28;20397;-72
2023/04/09 10:31:06;;;;;;;10.70;7.85;;;14.60;12.90;;;;;;5012451;28;20388;-74
2023/04/09 10:33:34;;;;;;;13.38;9.45;;;14.60;13.20;;;;;;5012722;28;20416;-74
2023/04/09 10:36:04;;;;;;;13.63;10.25;;;14.70;14.30;;;;;;5012688;28;20483;-73
2023/04/09 10:38:44;;;;;;;14.40;9.60;;;14.80;15.00;;;;;;5012617;28;20388;-73
2023/04/09 10:41:26;;;;;;;16.25;10.70;;;14.90;14.60;;;;;;5012194;28;20396;-72
2023/04/09 10:43:52;;;;;;;16.05;10.13;;;15.30;14.60;;;;;;5012620;28;20412;-72
2023/04/09 10:46:28;;;;;;;12.40;9.52;;;15.40;13.50;;;;;;5012833;28;20423;-72
2023/04/09 10:49:26;;;;;;;12.20;9.20;;;15.40;12.70;;;;;;5012173;28;20415;-74
2023/04/09 10:52:07;;;;;;;14.30;10.60;;;15.40;13.10;;;;;;4971860;28;20395;-73
2023/04/09 10:54:38;;;;;;;15.85;10.30;;;15.50;12.80;;;;;;5014327;28;20388;-73
2023/04/09 10:57:06;;;;;;;13.95;10.25;;;15.20;13.80;;;;;;5016418;28;20427;-71
2023/04/09 10:59:56;;;;;;;12.13;9.60;;;15.20;13.50;;;;;;5023871;28;20408;-73
2023/04/09 11:02:37;;;;;;;14.60;9.43;;;15.50;13.00;;;;;;5013973;28;20543;-73
2023/04/09 11:05:17;;;;;;;14.10;9.63;;;16.20;11.50;;;;;;5012479;28;20948;-73
2023/04/09 11:08:02;;;;;;;12.65;8.70;;;16.50;12.00;;;;;;5012443;28;20735;-73
2023/04/09 11:10:28;;;;;;;12.32;8.70;;;16.90;10.20;;;;;;5012184;28;20385;-73
2023/04/09 11:12:53;;;;;;;12.03;8.87;;;16.90;9.60;;;;;;5010574;28;20929;-74
2023/04/09 11:15:20;;;;;;;11.55;8.50;;;16.60;9.50;;;;;;4993667;28;20429;-74
2023/04/09 11:17:46;;;;;;;13.13;9.15;;;16.50;10.10;;;;;;5012902;28;20483;-73
2023/04/09 11:20:13;;;;;;;11.93;9.00;;;16.50;10.10;;;;;;4993838;28;20392;-74
2023/04/09 11:22:39;;;;;;;12.98;8.50;;;16.80;9.80;;;;;;5011097;28;20764;-73
2023/04/09 11:25:05;;;;;;;12.43;9.27;;;17.00;8.70;;;;;;5011419;28;20385;-73
2023/04/09 11:27:36;;;;;;;12.10;8.60;;;17.00;9.10;;;;;;4994009;28;20474;-75
2023/04/09 11:30:02;;;;;;;12.98;8.43;;;17.20;9.10;;;;;;5011193;28;20393;-73
2023/04/09 11:32:30;;;;;;;13.20;8.95;;;17.20;9.70;;;;;;5010310;28;20850;-73
2023/04/09 11:34:56;;;;;;;10.85;8.38;;;17.10;9.00;;;;;;5012828;28;20399;-75
2023/04/09 11:37:22;;;;;;;11.27;8.40;;;16.80;9.00;;;;;;5014444;28;20884;-73
2023/04/09 11:39:50;;;;;;;12.70;8.70;;;16.70;9.90;;;;;;5014835;28;20397;-72
2023/04/09 11:42:16;;;;;;;11.82;8.75;;;16.70;9.00;;;;;;4979508;28;20437;-73
2023/04/09 11:44:44;;;;;;;12.68;8.60;;;16.80;9.10;;;;;;4997073;28;20938;-74
2023/04/09 11:47:11;;;;;;;12.27;8.95;;;16.90;8.80;;;;;;4995070;28;20417;-74
2023/04/09 11:49:36;;;;;;;11.73;9.40;;;16.80;9.00;;;;;;4993067;28;20445;-74
2023/04/09 11:52:03;;;;;;;12.43;9.70;;;16.90;10.50;;;;;;4974672;28;20494;-73
2023/04/09 11:54:37;;;;;;;15.27;11.25;;;16.90;9.90;;;;;;4992606;28;20468;-73
2023/04/09 11:57:03;;;;;;;13.48;10.18;;;16.90;10.80;;;;;;4992050;28;20379;-72
2023/04/09 11:59:29;;;;;;;12.13;8.90;;;16.70;10.30;;;;;;4991899;28;20868;-72
2023/04/09 12:01:58;;;;;;;11.98;9.05;;;16.60;10.00;;;;;;4991204;28;20389;-73
2023/04/09 12:04:23;;;;;;;13.63;8.77;;;16.70;10.00;;;;;;4991705;28;20483;-75
2023/04/09 12:06:49;;;;;;;14.07;9.10;;;17.00;10.80;;;;;;4992402;28;20816;-73
2023/04/09 12:09:15;;;;;;;12.70;8.77;;;17.20;10.00;;;;;;4992502;28;20392;-73
2023/04/09 12:11:47;;;;;;;17.23;8.50;;;17.20;9.10;;;;;;4991094;28;20390;-72
2023/04/09 12:14:15;;;;;;;11.30;9.10;;;17.40;8.90;;;;;;4991834;28;20468;-73
2023/04/09 12:16:43;;;;;;;13.75;10.05;;;17.80;9.10;;;;;;4992003;28;20394;-71
2023/04/09 12:19:10;;;;;;;14.55;10.10;;;17.80;7.70;;;;;;4992510;28;20394;-74
2023/04/09 12:21:48;;;;;;;11.77;9.07;;;17.80;8.30;;;;;;4976221;28;20390;-72
2023/04/09 12:24:16;;;;;;;14.20;10.32;;;17.80;8.50;;;;;;4995817;28;20441;-73
2023/04/09 12:26:44;;;;;;;14.18;10.23;;;17.90;9.00;;;;;;4980779;28;20406;-72
2023/04/09 12:29:10;;;;;;;14.63;9.90;;;17.90;8.50;;;;;;4998272;28;20440;-74
2023/04/09 12:31:36;;;;;;;12.07;8.80;;;18.20;8.20;;;;;;4996767;28;20390;-73
2023/04/09 12:34:01;;;;;;;13.03;9.80;;;18.20;7.90;;;;;;4996467;28;20413;-74
2023/04/09 12:36:27;;;;;;;13.20;10.10;;;18.10;8.00;;;;;;4991427;28;20418;-73
2023/04/09 12:38:52;;;;;;;13.63;9.33;;;18.00;8.20;;;;;;4991576;28;20422;-73